sensor_id;sensor_type;location;lat;lon;timestamp;P1;durP1;ratioP1;P2;durP2;ratioP2
21032;SDS011;10675;47.976;7.824;2024-01-10T00:01:08;20.77;;;9.83;;
21032;SDS011;10675;47.976;7.824;2024-01-10T00:03:33;18.50;;;8.10;;
21032;SDS011;10675;47.976;7.824;2024-01-10T00:05:59;21.10;;;10.40;;
21032;SDS011;10675;47.976;7.824;2024-01-10T00:08:24;15.30;;;7.60;;
21032;SDS011;10675;47.976;7.824;2024-01-10T00:10:51;19.97;;;8.67;;
21032;SDS011;10675;47.976;7.824;2024-01-10T00:13:17;15.77;;;8.87;;
21032;SDS011;10675;47.976;7.824;2024-01-10T00:15:42;18.00;;;9.23;;
21032;SDS011;10675;47.976;7.824;2024-01-10T00:18:08;17.77;;;9.10;;
21032;SDS011;10675;47.976;7.824;2024-01-10T00:20:33;20.73;;;8.87;;
21032;SDS011;10675;47.976;7.824;2024-01-10T00:22:59;15.00;;;8.10;;
21032;SDS011;10675;47.976;7.824;2024-01-10T00:25:24;14.03;;;8.80;;
21032;SDS011;10675;47.976;7.824;2024-01-10T00:27:50;14.07;;;7.83;;
21032;SDS011;10675;47.976;7.824;2024-01-10T00:30:15;18.10;;;9.73;;
21032;SDS011;10675;47.976;7.824;2024-01-10T00:32:41;16.67;;;8.13;;
21032;SDS011;10675;47.976;7.824;2024-01-10T00:35:07;17.27;;;8.80;;
21032;SDS011;10675;47.976;7.824;2024-01-10T00:37:32;15.50;;;8.07;;
21032;SDS011;10675;47.976;7.824;2024-01-10T00:39:58;17.40;;;8.50;;
21032;SDS011;10675;47.976;7.824;2024-01-10T00:42:23;18.37;;;9.23;;
21032;SDS011;10675;47.976;7.824;2024-01-10T00:44:49;18.37;;;8.47;;
21032;SDS011;10675;47.976;7.824;2024-01-10T00:47:14;17.30;;;8.83;;
21032;SDS011;10675;47.976;7.824;2024-01-10T00:49:40;14.93;;;8.30;;
21032;SDS011;10675;47.976;7.824;2024-01-10T00:52:05;16.90;;;8.53;;
21032;SDS011;10675;47.976;7.824;2024-01-10T00:54:31;14.57;;;8.20;;
21032;SDS011;10675;47.976;7.824;2024-01-10T00:56:56;19.13;;;8.27;;
21032;SDS011;10675;47.976;7.824;2024-01-10T00:59:22;19.47;;;9.60;;
21032;SDS011;10675;47.976;7.824;2024-01-10T01:01:47;16.93;;;8.70;;
21032;SDS011;10675;47.976;7.824;2024-01-10T01:04:13;16.53;;;8.47;;
21032;SDS011;10675;47.976;7.824;2024-01-10T01:06:38;16.57;;;7.83;;
21032;SDS011;10675;47.976;7.824;2024-01-10T01:09:04;16.10;;;7.93;;
21032;SDS011;10675;47.976;7.824;2024-01-10T01:11:29;17.50;;;8.40;;
21032;SDS011;10675;47.976;7.824;2024-01-10T01:13:55;13.83;;;7.63;;
21032;SDS011;10675;47.976;7.824;2024-01-10T01:16:21;17.43;;;8.67;;
21032;SDS011;10675;47.976;7.824;2024-01-10T01:18:46;15.30;;;8.33;;
21032;SDS011;10675;47.976;7.824;2024-01-10T01:21:12;18.33;;;8.70;;
21032;SDS011;10675;47.976;7.824;2024-01-10T01:23:37;15.03;;;8.93;;
21032;SDS011;10675;47.976;7.824;2024-01-10T01:26:03;15.40;;;8.37;;
21032;SDS011;10675;47.976;7.824;2024-01-10T01:28:29;21.23;;;9.20;;
21032;SDS011;10675;47.976;7.824;2024-01-10T01:30:55;17.00;;;9.33;;
21032;SDS011;10675;47.976;7.824;2024-01-10T01:33:20;20.13;;;7.97;;
21032;SDS011;10675;47.976;7.824;2024-01-10T01:35:46;17.50;;;8.67;;
21032;SDS011;10675;47.976;7.824;2024-01-10T01:38:11;15.30;;;7.77;;
21032;SDS011;10675;47.976;7.824;2024-01-10T01:40:37;20.60;;;8.73;;
21032;SDS011;10675;47.976;7.824;2024-01-10T01:43:17;17.70;;;8.37;;
21032;SDS011;10675;47.976;7.824;2024-01-10T01:45:50;14.80;;;8.33;;
21032;SDS011;10675;47.976;7.824;2024-01-10T01:48:19;13.33;;;7.90;;
21032;SDS011;10675;47.976;7.824;2024-01-10T01:50:45;23.03;;;8.37;;
21032;SDS011;10675;47.976;7.824;2024-01-10T01:53:13;17.87;;;8.90;;
21032;SDS011;10675;47.976;7.824;2024-01-10T01:55:40;23.00;;;9.83;;
21032;SDS011;10675;47.976;7.824;2024-01-10T01:58:08;15.27;;;8.03;;
21032;SDS011;10675;47.976;7.824;2024-01-10T02:00:33;17.40;;;8.70;;
21032;SDS011;10675;47.976;7.824;2024-01-10T02:03:00;15.50;;;8.27;;
21032;SDS011;10675;47.976;7.824;2024-01-10T02:05:26;18.87;;;9.13;;
21032;SDS011;10675;47.976;7.824;2024-01-10T02:07:52;16.13;;;9.07;;
21032;SDS011;10675;47.976;7.824;2024-01-10T02:10:18;16.27;;;8.70;;
21032;SDS011;10675;47.976;7.824;2024-01-10T02:12:44;15.43;;;7.60;;
21032;SDS011;10675;47.976;7.824;2024-01-10T02:15:10;21.23;;;8.80;;
21032;SDS011;10675;47.976;7.824;2024-01-10T02:17:37;14.73;;;8.27;;
21032;SDS011;10675;47.976;7.824;2024-01-10T02:20:09;20.00;;;8.77;;
21032;SDS011;10675;47.976;7.824;2024-01-10T02:22:36;17.57;;;9.20;;
21032;SDS011;10675;47.976;7.824;2024-01-10T02:25:02;17.43;;;8.57;;
21032;SDS011;10675;47.976;7.824;2024-01-10T02:27:32;18.67;;;10.57;;
21032;SDS011;10675;47.976;7.824;2024-01-10T02:29:59;15.27;;;8.93;;
21032;SDS011;10675;47.976;7.824;2024-01-10T02:32:26;18.63;;;8.53;;
21032;SDS011;10675;47.976;7.824;2024-01-10T02:34:52;16.20;;;8.63;;
21032;SDS011;10675;47.976;7.824;2024-01-10T02:37:17;20.03;;;9.03;;
21032;SDS011;10675;47.976;7.824;2024-01-10T02:39:43;21.27;;;9.57;;
21032;SDS011;10675;47.976;7.824;2024-01-10T02:42:08;14.73;;;8.57;;
21032;SDS011;10675;47.976;7.824;2024-01-10T02:44:34;18.43;;;9.50;;
21032;SDS011;10675;47.976;7.824;2024-01-10T02:46:59;22.60;;;9.20;;
21032;SDS011;10675;47.976;7.824;2024-01-10T02:49:25;18.90;;;8.40;;
21032;SDS011;10675;47.976;7.824;2024-01-10T02:51:50;14.83;;;9.33;;
21032;SDS011;10675;47.976;7.824;2024-01-10T02:54:16;17.97;;;8.00;;
21032;SDS011;10675;47.976;7.824;2024-01-10T02:56:41;17.33;;;9.63;;
21032;SDS011;10675;47.976;7.824;2024-01-10T02:59:07;17.20;;;9.77;;
21032;SDS011;10675;47.976;7.824;2024-01-10T03:01:32;20.27;;;9.57;;
21032;SDS011;10675;47.976;7.824;2024-01-10T03:03:58;15.67;;;9.23;;
21032;SDS011;10675;47.976;7.824;2024-01-10T03:06:24;23.60;;;9.03;;
21032;SDS011;10675;47.976;7.824;2024-01-10T03:08:49;22.30;;;10.03;;
21032;SDS011;10675;47.976;7.824;2024-01-10T03:11:15;19.73;;;9.20;;
21032;SDS011;10675;47.976;7.824;2024-01-10T03:13:42;19.20;;;9.50;;
21032;SDS011;10675;47.976;7.824;2024-01-10T03:16:11;16.37;;;9.07;;
21032;SDS011;10675;47.976;7.824;2024-01-10T03:18:36;19.57;;;9.67;;
21032;SDS011;10675;47.976;7.824;2024-01-10T03:21:02;20.83;;;9.60;;
21032;SDS011;10675;47.976;7.824;2024-01-10T03:23:28;19.03;;;9.77;;
21032;SDS011;10675;47.976;7.824;2024-01-10T03:25:53;19.73;;;9.63;;
21032;SDS011;10675;47.976;7.824;2024-01-10T03:28:19;19.13;;;9.87;;
21032;SDS011;10675;47.976;7.824;2024-01-10T03:30:44;18.50;;;9.23;;
21032;SDS011;10675;47.976;7.824;2024-01-10T03:33:10;19.57;;;8.60;;
21032;SDS011;10675;47.976;7.824;2024-01-10T03:35:36;19.87;;;9.73;;
21032;SDS011;10675;47.976;7.824;2024-01-10T03:38:02;16.23;;;8.83;;
21032;SDS011;10675;47.976;7.824;2024-01-10T03:40:27;14.57;;;8.67;;
21032;SDS011;10675;47.976;7.824;2024-01-10T03:42:53;20.87;;;8.73;;
21032;SDS011;10675;47.976;7.824;2024-01-10T03:45:18;21.50;;;9.57;;
21032;SDS011;10675;47.976;7.824;2024-01-10T03:47:47;19.83;;;8.67;;
21032;SDS011;10675;47.976;7.824;2024-01-10T03:50:18;14.07;;;8.23;;
21032;SDS011;10675;47.976;7.824;2024-01-10T03:52:44;16.70;;;8.67;;
21032;SDS011;10675;47.976;7.824;2024-01-10T03:55:14;23.93;;;9.27;;
21032;SDS011;10675;47.976;7.824;2024-01-10T03:57:40;19.97;;;8.60;;
21032;SDS011;10675;47.976;7.824;2024-01-10T04:00:06;20.97;;;9.43;;
21032;SDS011;10675;47.976;7.824;2024-01-10T04:02:32;21.43;;;9.47;;
21032;SDS011;10675;47.976;7.824;2024-01-10T04:04:58;17.17;;;8.80;;
21032;SDS011;10675;47.976;7.824;2024-01-10T04:07:23;19.87;;;9.87;;
21032;SDS011;10675;47.976;7.824;2024-01-10T04:09:49;20.03;;;9.90;;
21032;SDS011;10675;47.976;7.824;2024-01-10T04:12:15;20.07;;;9.30;;
21032;SDS011;10675;47.976;7.824;2024-01-10T04:14:40;17.30;;;8.87;;
21032;SDS011;10675;47.976;7.824;2024-01-10T04:17:06;18.30;;;9.50;;
21032;SDS011;10675;47.976;7.824;2024-01-10T04:19:33;18.90;;;9.00;;
21032;SDS011;10675;47.976;7.824;2024-01-10T04:21:59;19.97;;;9.53;;
21032;SDS011;10675;47.976;7.824;2024-01-10T04:24:24;24.57;;;10.63;;
21032;SDS011;10675;47.976;7.824;2024-01-10T04:26:50;17.83;;;9.80;;
21032;SDS011;10675;47.976;7.824;2024-01-10T04:29:16;18.20;;;9.57;;
21032;SDS011;10675;47.976;7.824;2024-01-10T04:31:41;19.37;;;9.47;;
21032;SDS011;10675;47.976;7.824;2024-01-10T04:34:07;22.53;;;10.23;;
21032;SDS011;10675;47.976;7.824;2024-01-10T04:36:33;21.13;;;10.17;;
21032;SDS011;10675;47.976;7.824;2024-01-10T04:38:58;23.13;;;11.30;;
21032;SDS011;10675;47.976;7.824;2024-01-10T04:41:24;17.50;;;8.90;;
21032;SDS011;10675;47.976;7.824;2024-01-10T04:43:50;19.87;;;10.00;;
21032;SDS011;10675;47.976;7.824;2024-01-10T04:46:16;25.77;;;10.57;;
21032;SDS011;10675;47.976;7.824;2024-01-10T04:48:41;27.07;;;10.00;;
21032;SDS011;10675;47.976;7.824;2024-01-10T04:51:07;22.13;;;10.97;;
21032;SDS011;10675;47.976;7.824;2024-01-10T04:53:32;23.77;;;10.13;;
21032;SDS011;10675;47.976;7.824;2024-01-10T04:55:58;21.57;;;8.80;;
21032;SDS011;10675;47.976;7.824;2024-01-10T04:58:24;21.03;;;9.97;;
21032;SDS011;10675;47.976;7.824;2024-01-10T05:00:49;20.93;;;9.07;;
21032;SDS011;10675;47.976;7.824;2024-01-10T05:03:15;19.13;;;9.50;;
21032;SDS011;10675;47.976;7.824;2024-01-10T05:05:40;17.53;;;9.73;;
21032;SDS011;10675;47.976;7.824;2024-01-10T05:08:06;20.17;;;9.73;;
21032;SDS011;10675;47.976;7.824;2024-01-10T05:10:32;20.17;;;9.93;;
21032;SDS011;10675;47.976;7.824;2024-01-10T05:12:57;21.83;;;10.20;;
21032;SDS011;10675;47.976;7.824;2024-01-10T05:15:23;17.57;;;9.33;;
21032;SDS011;10675;47.976;7.824;2024-01-10T05:17:48;18.10;;;8.67;;
21032;SDS011;10675;47.976;7.824;2024-01-10T05:20:14;20.30;;;9.23;;
21032;SDS011;10675;47.976;7.824;2024-01-10T05:22:39;15.10;;;8.13;;
21032;SDS011;10675;47.976;7.824;2024-01-10T05:25:05;19.07;;;9.00;;
21032;SDS011;10675;47.976;7.824;2024-01-10T05:27:31;20.03;;;10.03;;
21032;SDS011;10675;47.976;7.824;2024-01-10T05:29:57;23.30;;;10.10;;
21032;SDS011;10675;47.976;7.824;2024-01-10T05:32:24;21.77;;;9.50;;
21032;SDS011;10675;47.976;7.824;2024-01-10T05:34:50;20.97;;;9.53;;
21032;SDS011;10675;47.976;7.824;2024-01-10T05:37:15;20.70;;;9.97;;
21032;SDS011;10675;47.976;7.824;2024-01-10T05:39:41;19.63;;;9.93;;
21032;SDS011;10675;47.976;7.824;2024-01-10T05:42:07;22.50;;;10.90;;
21032;SDS011;10675;47.976;7.824;2024-01-10T05:44:32;16.33;;;8.63;;
21032;SDS011;10675;47.976;7.824;2024-01-10T05:46:58;25.80;;;9.50;;
21032;SDS011;10675;47.976;7.824;2024-01-10T05:49:24;21.07;;;9.50;;
21032;SDS011;10675;47.976;7.824;2024-01-10T05:51:50;23.00;;;9.17;;
21032;SDS011;10675;47.976;7.824;2024-01-10T05:54:16;23.63;;;9.27;;
21032;SDS011;10675;47.976;7.824;2024-01-10T05:56:43;24.30;;;10.07;;
21032;SDS011;10675;47.976;7.824;2024-01-10T05:59:08;20.63;;;9.47;;
21032;SDS011;10675;47.976;7.824;2024-01-10T06:01:36;20.90;;;8.57;;
21032;SDS011;10675;47.976;7.824;2024-01-10T06:04:03;21.27;;;11.27;;
21032;SDS011;10675;47.976;7.824;2024-01-10T06:06:29;20.43;;;10.83;;
21032;SDS011;10675;47.976;7.824;2024-01-10T06:08:55;18.70;;;9.07;;
21032;SDS011;10675;47.976;7.824;2024-01-10T06:11:20;21.57;;;9.83;;
21032;SDS011;10675;47.976;7.824;2024-01-10T06:13:46;17.60;;;9.53;;
21032;SDS011;10675;47.976;7.824;2024-01-10T06:16:11;23.43;;;10.00;;
21032;SDS011;10675;47.976;7.824;2024-01-10T06:18:38;22.47;;;10.23;;
21032;SDS011;10675;47.976;7.824;2024-01-10T06:21:04;26.50;;;9.83;;
21032;SDS011;10675;47.976;7.824;2024-01-10T06:23:29;20.30;;;10.60;;
21032;SDS011;10675;47.976;7.824;2024-01-10T06:25:55;21.40;;;9.83;;
21032;SDS011;10675;47.976;7.824;2024-01-10T06:28:20;25.07;;;10.43;;
21032;SDS011;10675;47.976;7.824;2024-01-10T06:30:46;20.87;;;10.60;;
21032;SDS011;10675;47.976;7.824;2024-01-10T06:33:12;27.47;;;10.37;;
21032;SDS011;10675;47.976;7.824;2024-01-10T06:35:38;22.97;;;10.90;;
21032;SDS011;10675;47.976;7.824;2024-01-10T06:38:04;18.03;;;9.40;;
21032;SDS011;10675;47.976;7.824;2024-01-10T06:40:30;17.03;;;9.33;;
21032;SDS011;10675;47.976;7.824;2024-01-10T06:42:55;21.77;;;10.07;;
21032;SDS011;10675;47.976;7.824;2024-01-10T06:45:21;17.43;;;9.17;;
21032;SDS011;10675;47.976;7.824;2024-01-10T06:47:47;23.00;;;9.53;;
21032;SDS011;10675;47.976;7.824;2024-01-10T06:50:12;38.37;;;9.60;;
21032;SDS011;10675;47.976;7.824;2024-01-10T06:52:38;22.27;;;9.10;;
21032;SDS011;10675;47.976;7.824;2024-01-10T06:55:04;18.70;;;9.53;;
21032;SDS011;10675;47.976;7.824;2024-01-10T06:57:30;19.13;;;8.83;;
21032;SDS011;10675;47.976;7.824;2024-01-10T06:59:55;19.33;;;9.87;;
21032;SDS011;10675;47.976;7.824;2024-01-10T07:02:22;20.53;;;8.67;;
21032;SDS011;10675;47.976;7.824;2024-01-10T07:04:48;19.30;;;10.13;;
21032;SDS011;10675;47.976;7.824;2024-01-10T07:07:14;28.73;;;9.50;;
21032;SDS011;10675;47.976;7.824;2024-01-10T07:09:39;20.77;;;10.13;;
21032;SDS011;10675;47.976;7.824;2024-01-10T07:12:06;23.37;;;10.43;;
21032;SDS011;10675;47.976;7.824;2024-01-10T07:14:32;20.80;;;10.03;;
21032;SDS011;10675;47.976;7.824;2024-01-10T07:16:57;16.30;;;8.90;;
21032;SDS011;10675;47.976;7.824;2024-01-10T07:19:23;19.63;;;10.10;;
21032;SDS011;10675;47.976;7.824;2024-01-10T07:21:49;21.20;;;9.73;;
21032;SDS011;10675;47.976;7.824;2024-01-10T07:24:15;14.50;;;9.43;;
21032;SDS011;10675;47.976;7.824;2024-01-10T07:26:40;19.10;;;9.33;;
21032;SDS011;10675;47.976;7.824;2024-01-10T07:29:06;19.40;;;9.30;;
21032;SDS011;10675;47.976;7.824;2024-01-10T07:31:33;24.63;;;9.97;;
21032;SDS011;10675;47.976;7.824;2024-01-10T07:34:01;19.97;;;9.73;;
21032;SDS011;10675;47.976;7.824;2024-01-10T07:36:29;21.97;;;10.00;;
21032;SDS011;10675;47.976;7.824;2024-01-10T07:38:58;22.47;;;10.33;;
21032;SDS011;10675;47.976;7.824;2024-01-10T07:41:24;22.33;;;10.00;;
21032;SDS011;10675;47.976;7.824;2024-01-10T07:43:50;19.73;;;10.50;;
21032;SDS011;10675;47.976;7.824;2024-01-10T07:46:15;23.10;;;10.93;;
21032;SDS011;10675;47.976;7.824;2024-01-10T07:48:41;20.03;;;10.67;;
21032;SDS011;10675;47.976;7.824;2024-01-10T07:51:07;24.23;;;10.27;;
21032;SDS011;10675;47.976;7.824;2024-01-10T07:53:33;21.70;;;10.23;;
21032;SDS011;10675;47.976;7.824;2024-01-10T07:55:58;24.27;;;10.27;;
21032;SDS011;10675;47.976;7.824;2024-01-10T07:58:24;23.87;;;10.67;;
21032;SDS011;10675;47.976;7.824;2024-01-10T08:00:49;18.77;;;9.80;;
21032;SDS011;10675;47.976;7.824;2024-01-10T08:03:16;19.97;;;9.50;;
21032;SDS011;10675;47.976;7.824;2024-01-10T08:05:41;19.57;;;10.37;;
21032;SDS011;10675;47.976;7.824;2024-01-10T08:08:07;22.13;;;9.93;;
21032;SDS011;10675;47.976;7.824;2024-01-10T08:10:34;18.50;;;9.57;;
21032;SDS011;10675;47.976;7.824;2024-01-10T08:12:59;20.47;;;9.53;;
21032;SDS011;10675;47.976;7.824;2024-01-10T08:15:25;20.80;;;10.63;;
21032;SDS011;10675;47.976;7.824;2024-01-10T08:17:51;20.93;;;10.23;;
21032;SDS011;10675;47.976;7.824;2024-01-10T08:20:16;18.53;;;9.53;;
21032;SDS011;10675;47.976;7.824;2024-01-10T08:22:45;23.93;;;10.90;;
21032;SDS011;10675;47.976;7.824;2024-01-10T08:25:12;27.80;;;12.07;;
21032;SDS011;10675;47.976;7.824;2024-01-10T08:27:40;20.70;;;11.47;;
21032;SDS011;10675;47.976;7.824;2024-01-10T08:30:06;28.83;;;11.37;;
21032;SDS011;10675;47.976;7.824;2024-01-10T08:32:34;25.57;;;10.73;;
21032;SDS011;10675;47.976;7.824;2024-01-10T08:35:01;23.27;;;10.90;;
21032;SDS011;10675;47.976;7.824;2024-01-10T08:37:29;26.37;;;11.50;;
21032;SDS011;10675;47.976;7.824;2024-01-10T08:39:55;24.60;;;11.67;;
21032;SDS011;10675;47.976;7.824;2024-01-10T08:42:21;26.30;;;11.90;;
21032;SDS011;10675;47.976;7.824;2024-01-10T08:44:46;24.33;;;11.77;;
21032;SDS011;10675;47.976;7.824;2024-01-10T08:47:12;24.30;;;11.53;;
21032;SDS011;10675;47.976;7.824;2024-01-10T08:49:37;28.57;;;11.93;;
21032;SDS011;10675;47.976;7.824;2024-01-10T08:52:03;23.73;;;11.47;;
21032;SDS011;10675;47.976;7.824;2024-01-10T08:54:29;23.10;;;12.53;;
21032;SDS011;10675;47.976;7.824;2024-01-10T08:56:54;26.07;;;12.60;;
21032;SDS011;10675;47.976;7.824;2024-01-10T08:59:20;25.97;;;13.53;;
21032;SDS011;10675;47.976;7.824;2024-01-10T09:01:46;35.27;;;14.57;;
21032;SDS011;10675;47.976;7.824;2024-01-10T09:04:11;28.50;;;13.27;;
21032;SDS011;10675;47.976;7.824;2024-01-10T09:06:37;28.23;;;12.90;;
21032;SDS011;10675;47.976;7.824;2024-01-10T09:09:02;24.47;;;10.93;;
21032;SDS011;10675;47.976;7.824;2024-01-10T09:11:28;18.50;;;9.87;;
21032;SDS011;10675;47.976;7.824;2024-01-10T09:13:54;25.80;;;11.17;;
21032;SDS011;10675;47.976;7.824;2024-01-10T09:16:19;25.77;;;11.50;;
21032;SDS011;10675;47.976;7.824;2024-01-10T09:18:45;20.17;;;10.30;;
21032;SDS011;10675;47.976;7.824;2024-01-10T09:21:10;24.07;;;10.83;;
21032;SDS011;10675;47.976;7.824;2024-01-10T09:23:37;24.77;;;11.67;;
21032;SDS011;10675;47.976;7.824;2024-01-10T09:26:02;22.20;;;10.83;;
21032;SDS011;10675;47.976;7.824;2024-01-10T09:28:28;26.03;;;11.73;;
21032;SDS011;10675;47.976;7.824;2024-01-10T09:30:54;20.93;;;10.50;;
21032;SDS011;10675;47.976;7.824;2024-01-10T09:33:19;26.00;;;11.13;;
21032;SDS011;10675;47.976;7.824;2024-01-10T09:35:46;22.73;;;10.33;;
21032;SDS011;10675;47.976;7.824;2024-01-10T09:38:12;22.13;;;10.93;;
21032;SDS011;10675;47.976;7.824;2024-01-10T09:40:37;26.07;;;11.23;;
21032;SDS011;10675;47.976;7.824;2024-01-10T09:43:04;24.63;;;11.57;;
21032;SDS011;10675;47.976;7.824;2024-01-10T09:45:34;29.17;;;10.93;;
21032;SDS011;10675;47.976;7.824;2024-01-10T09:48:00;30.10;;;11.20;;
21032;SDS011;10675;47.976;7.824;2024-01-10T09:50:26;25.57;;;10.00;;
21032;SDS011;10675;47.976;7.824;2024-01-10T09:52:53;29.70;;;12.87;;
21032;SDS011;10675;47.976;7.824;2024-01-10T09:55:22;26.73;;;12.10;;
21032;SDS011;10675;47.976;7.824;2024-01-10T09:57:48;24.23;;;11.03;;
21032;SDS011;10675;47.976;7.824;2024-01-10T10:00:14;19.03;;;10.73;;
21032;SDS011;10675;47.976;7.824;2024-01-10T10:02:41;28.03;;;11.27;;
21032;SDS011;10675;47.976;7.824;2024-01-10T10:05:16;22.33;;;10.90;;
21032;SDS011;10675;47.976;7.824;2024-01-10T10:07:43;27.80;;;12.70;;
21032;SDS011;10675;47.976;7.824;2024-01-10T10:10:12;22.47;;;10.03;;
21032;SDS011;10675;47.976;7.824;2024-01-10T10:12:46;28.10;;;12.67;;
21032;SDS011;10675;47.976;7.824;2024-01-10T10:15:18;20.97;;;11.00;;
21032;SDS011;10675;47.976;7.824;2024-01-10T10:17:47;21.13;;;11.37;;
21032;SDS011;10675;47.976;7.824;2024-01-10T10:20:20;26.20;;;11.77;;
21032;SDS011;10675;47.976;7.824;2024-01-10T10:23:02;25.03;;;11.70;;
21032;SDS011;10675;47.976;7.824;2024-01-10T10:25:32;26.97;;;12.60;;
21032;SDS011;10675;47.976;7.824;2024-01-10T10:27:59;24.47;;;11.57;;
21032;SDS011;10675;47.976;7.824;2024-01-10T10:30:26;25.50;;;11.93;;
21032;SDS011;10675;47.976;7.824;2024-01-10T10:32:52;21.43;;;11.33;;
21032;SDS011;10675;47.976;7.824;2024-01-10T10:35:18;23.93;;;11.10;;
21032;SDS011;10675;47.976;7.824;2024-01-10T10:37:45;23.60;;;11.47;;
21032;SDS011;10675;47.976;7.824;2024-01-10T10:40:15;27.03;;;12.60;;
21032;SDS011;10675;47.976;7.824;2024-01-10T10:42:45;24.40;;;11.07;;
21032;SDS011;10675;47.976;7.824;2024-01-10T10:45:14;23.60;;;11.57;;
21032;SDS011;10675;47.976;7.824;2024-01-10T10:47:42;23.20;;;11.30;;
21032;SDS011;10675;47.976;7.824;2024-01-10T10:50:12;25.10;;;11.43;;
21032;SDS011;10675;47.976;7.824;2024-01-10T10:52:44;23.97;;;11.73;;
21032;SDS011;10675;47.976;7.824;2024-01-10T10:55:17;25.10;;;11.90;;
21032;SDS011;10675;47.976;7.824;2024-01-10T10:57:47;28.00;;;11.83;;
21032;SDS011;10675;47.976;7.824;2024-01-10T11:00:14;21.33;;;10.80;;
21032;SDS011;10675;47.976;7.824;2024-01-10T11:02:42;25.77;;;11.37;;
21032;SDS011;10675;47.976;7.824;2024-01-10T11:05:10;25.20;;;11.77;;
21032;SDS011;10675;47.976;7.824;2024-01-10T11:07:40;30.37;;;12.43;;
21032;SDS011;10675;47.976;7.824;2024-01-10T11:10:10;26.00;;;12.50;;
21032;SDS011;10675;47.976;7.824;2024-01-10T11:44:27;27.03;;;15.30;;
21032;SDS011;10675;47.976;7.824;2024-01-10T11:46:54;28.60;;;12.47;;
21032;SDS011;10675;47.976;7.824;2024-01-10T11:49:21;23.20;;;11.90;;
21032;SDS011;10675;47.976;7.824;2024-01-10T11:51:48;20.93;;;11.67;;
21032;SDS011;10675;47.976;7.824;2024-01-10T11:54:34;19.80;;;10.90;;
21032;SDS011;10675;47.976;7.824;2024-01-10T11:57:00;20.47;;;11.17;;
21032;SDS011;10675;47.976;7.824;2024-01-10T11:59:26;20.87;;;11.20;;
21032;SDS011;10675;47.976;7.824;2024-01-10T12:01:52;21.50;;;11.00;;
21032;SDS011;10675;47.976;7.824;2024-01-10T12:04:19;22.30;;;10.83;;
21032;SDS011;10675;47.976;7.824;2024-01-10T12:06:45;19.13;;;11.30;;
21032;SDS011;10675;47.976;7.824;2024-01-10T12:09:12;24.40;;;11.20;;
21032;SDS011;10675;47.976;7.824;2024-01-10T12:11:39;23.87;;;10.77;;
21032;SDS011;10675;47.976;7.824;2024-01-10T12:14:05;20.83;;;10.53;;
21032;SDS011;10675;47.976;7.824;2024-01-10T12:16:34;22.37;;;10.57;;
21032;SDS011;10675;47.976;7.824;2024-01-10T12:19:00;22.23;;;11.33;;
21032;SDS011;10675;47.976;7.824;2024-01-10T12:21:26;24.00;;;11.33;;
21032;SDS011;10675;47.976;7.824;2024-01-10T12:23:51;17.77;;;10.60;;
21032;SDS011;10675;47.976;7.824;2024-01-10T12:26:17;27.33;;;11.23;;
21032;SDS011;10675;47.976;7.824;2024-01-10T12:28:53;20.17;;;10.20;;
21032;SDS011;10675;47.976;7.824;2024-01-10T12:31:20;21.83;;;11.40;;
21032;SDS011;10675;47.976;7.824;2024-01-10T12:33:47;19.03;;;10.27;;
21032;SDS011;10675;47.976;7.824;2024-01-10T12:36:14;19.70;;;10.03;;
21032;SDS011;10675;47.976;7.824;2024-01-10T12:38:41;20.83;;;11.10;;
21032;SDS011;10675;47.976;7.824;2024-01-10T12:41:07;21.43;;;9.80;;
21032;SDS011;10675;47.976;7.824;2024-01-10T12:43:36;19.07;;;10.67;;
21032;SDS011;10675;47.976;7.824;2024-01-10T12:46:06;20.50;;;10.30;;
21032;SDS011;10675;47.976;7.824;2024-01-10T12:48:33;24.63;;;11.33;;
21032;SDS011;10675;47.976;7.824;2024-01-10T12:51:02;16.57;;;9.93;;
21032;SDS011;10675;47.976;7.824;2024-01-10T12:53:35;23.07;;;10.67;;
21032;SDS011;10675;47.976;7.824;2024-01-10T12:56:02;22.13;;;10.90;;
21032;SDS011;10675;47.976;7.824;2024-01-10T12:58:28;21.13;;;10.47;;
21032;SDS011;10675;47.976;7.824;2024-01-10T13:00:54;18.47;;;9.47;;
21032;SDS011;10675;47.976;7.824;2024-01-10T13:03:20;19.93;;;9.83;;
21032;SDS011;10675;47.976;7.824;2024-01-10T13:05:46;22.83;;;11.13;;
21032;SDS011;10675;47.976;7.824;2024-01-10T13:08:12;20.13;;;10.27;;
21032;SDS011;10675;47.976;7.824;2024-01-10T13:10:38;18.07;;;10.07;;
21032;SDS011;10675;47.976;7.824;2024-01-10T13:13:04;19.30;;;10.03;;
21032;SDS011;10675;47.976;7.824;2024-01-10T13:15:29;23.50;;;10.17;;
21032;SDS011;10675;47.976;7.824;2024-01-10T13:17:55;19.63;;;9.57;;
21032;SDS011;10675;47.976;7.824;2024-01-10T13:20:23;20.10;;;8.70;;
21032;SDS011;10675;47.976;7.824;2024-01-10T13:22:49;21.47;;;9.97;;
21032;SDS011;10675;47.976;7.824;2024-01-10T13:25:17;18.27;;;10.23;;
21032;SDS011;10675;47.976;7.824;2024-01-10T13:27:46;18.10;;;10.70;;
21032;SDS011;10675;47.976;7.824;2024-01-10T13:30:11;19.80;;;10.40;;
21032;SDS011;10675;47.976;7.824;2024-01-10T13:32:37;22.90;;;10.20;;
21032;SDS011;10675;47.976;7.824;2024-01-10T13:35:05;23.33;;;10.40;;
21032;SDS011;10675;47.976;7.824;2024-01-10T13:37:31;20.67;;;9.77;;
21032;SDS011;10675;47.976;7.824;2024-01-10T13:39:57;24.67;;;10.97;;
21032;SDS011;10675;47.976;7.824;2024-01-10T13:42:23;20.70;;;10.60;;
21032;SDS011;10675;47.976;7.824;2024-01-10T13:44:49;19.33;;;10.23;;
21032;SDS011;10675;47.976;7.824;2024-01-10T13:47:15;23.20;;;9.90;;
21032;SDS011;10675;47.976;7.824;2024-01-10T13:49:42;20.93;;;11.17;;
21032;SDS011;10675;47.976;7.824;2024-01-10T13:52:08;20.77;;;10.80;;
21032;SDS011;10675;47.976;7.824;2024-01-10T13:54:34;21.67;;;9.80;;
21032;SDS011;10675;47.976;7.824;2024-01-10T13:56:59;19.70;;;10.27;;
21032;SDS011;10675;47.976;7.824;2024-01-10T13:59:25;20.83;;;9.97;;
21032;SDS011;10675;47.976;7.824;2024-01-10T14:01:50;21.67;;;10.33;;
21032;SDS011;10675;47.976;7.824;2024-01-10T14:04:16;21.33;;;10.60;;
21032;SDS011;10675;47.976;7.824;2024-01-10T14:06:41;19.53;;;10.20;;
21032;SDS011;10675;47.976;7.824;2024-01-10T14:09:07;20.17;;;9.97;;
21032;SDS011;10675;47.976;7.824;2024-01-10T14:11:34;18.47;;;10.70;;
21032;SDS011;10675;47.976;7.824;2024-01-10T14:14:00;20.70;;;9.70;;
21032;SDS011;10675;47.976;7.824;2024-01-10T14:16:26;20.40;;;10.20;;
21032;SDS011;10675;47.976;7.824;2024-01-10T14:18:52;18.50;;;9.53;;
21032;SDS011;10675;47.976;7.824;2024-01-10T14:21:21;19.30;;;11.27;;
21032;SDS011;10675;47.976;7.824;2024-01-10T14:23:47;19.93;;;10.37;;
21032;SDS011;10675;47.976;7.824;2024-01-10T14:26:13;16.10;;;9.83;;
21032;SDS011;10675;47.976;7.824;2024-01-10T14:28:41;23.40;;;11.53;;
21032;SDS011;10675;47.976;7.824;2024-01-10T14:31:07;19.13;;;10.50;;
21032;SDS011;10675;47.976;7.824;2024-01-10T14:33:34;20.90;;;10.87;;
21032;SDS011;10675;47.976;7.824;2024-01-10T14:36:00;20.07;;;11.80;;
21032;SDS011;10675;47.976;7.824;2024-01-10T14:38:26;16.93;;;10.47;;
21032;SDS011;10675;47.976;7.824;2024-01-10T14:40:51;19.73;;;10.17;;
21032;SDS011;10675;47.976;7.824;2024-01-10T14:43:17;20.20;;;10.97;;
21032;SDS011;10675;47.976;7.824;2024-01-10T14:45:43;20.30;;;10.87;;
21032;SDS011;10675;47.976;7.824;2024-01-10T14:48:09;19.20;;;11.97;;
21032;SDS011;10675;47.976;7.824;2024-01-10T14:50:34;18.33;;;11.20;;
21032;SDS011;10675;47.976;7.824;2024-01-10T14:53:01;19.13;;;11.27;;
21032;SDS011;10675;47.976;7.824;2024-01-10T14:55:26;25.27;;;12.67;;